Terminal Aerodrome Forecast
Issued by NWS Shreveport, LA

Home | Current Version | Previous Version | Text Only | Print | Product List | Glossary On
Versions: 1 2 3 4 5 6 7 8 9 10 11 12 13 14 15 16
000
FTUS44 KSHV 182322
TAFTYR
TAF
KTYR 182322Z 1900/1924 34006KT 2SM -DZ BR OVC002
      TEMPO 1900/1904 1/2SM DZ FG OVC001
     FM190400 VRB03KT 1SM -DZ BR OVC002
     FM191200 VRB03KT 3SM BR OVC005
     FM191600 21005KT P6SM BKN015
     FM192000 20010KT P6SM SCT030 SCT250=

USA.gov is the U.S. government's official web portal to all federal, state and local government web resources and services.